Time;durP1;ratioP1;P1;durP2;ratioP2;P2;SDS_P1;SDS_P2;PMS_P1;PMS_P2;Temp;Humidity;BMP_temperature;BMP_pressure;BME280_temperature;BME280_humidity;BME280_pressure;Samples;Min_cycle;Max_cycle;Signal;HPM_P1;HPM_P2
2022/05/06 00:01:13;;;;;;;14.13;7.10;;;;;;;15.43;69.05;100217.81;4421229;32;34980;-73
2022/05/06 00:03:59;;;;;;;11.75;6.75;;;;;;;15.22;69.50;100223.19;4422200;32;34691;-72
2022/05/06 00:06:47;;;;;;;12.15;7.53;;;;;;;15.46;68.57;100217.16;4421832;32;34108;-73
2022/05/06 00:09:34;;;;;;;10.15;6.97;;;;;;;15.15;69.38;100220.94;4420155;32;34805;-73
2022/05/06 00:12:21;;;;;;;10.30;7.10;;;;;;;15.44;68.97;100213.91;4421129;32;35983;-73
2022/05/06 00:15:08;;;;;;;10.93;7.00;;;;;;;15.33;69.03;100198.81;4409494;32;34703;-73
2022/05/06 00:17:55;;;;;;;11.02;6.90;;;;;;;15.58;67.80;100202.66;4421913;32;34196;-73
2022/05/06 00:20:42;;;;;;;10.52;6.65;;;;;;;14.91;70.16;100206.84;4415360;32;34694;-73
2022/05/06 00:23:29;;;;;;;10.15;7.00;;;;;;;14.77;71.14;100201.50;4413383;32;35930;-72
2022/05/06 00:26:16;;;;;;;10.85;7.30;;;;;;;15.00;70.81;100210.44;4410629;32;34674;-73
2022/05/06 00:29:02;;;;;;;12.32;7.53;;;;;;;15.03;70.13;100210.56;4416795;32;35177;-73
2022/05/06 00:31:53;;;;;;;10.43;7.20;;;;;;;14.55;72.58;100216.28;4402576;32;35671;-73
2022/05/06 00:34:39;;;;;;;10.32;6.90;;;;;;;14.83;72.07;100212.06;4394666;32;34954;-74
2022/05/06 00:37:25;;;;;;;12.23;7.28;;;;;;;15.25;70.06;100220.63;4417051;32;34745;-73
2022/05/06 00:40:13;;;;;;;12.43;6.93;;;;;;;15.27;70.01;100207.28;4413783;32;34095;-73
2022/05/06 00:43:05;;;;;;;11.98;7.00;;;;;;;15.34;69.48;100219.75;4401047;32;35490;-73
2022/05/06 00:45:53;;;;;;;10.40;7.62;;;;;;;14.98;71.33;100219.03;4417046;32;35181;-73
2022/05/06 00:48:42;;;;;;;12.10;7.12;;;;;;;14.98;71.70;100212.69;4413270;32;34871;-73
2022/05/06 00:51:29;;;;;;;10.82;7.40;;;;;;;15.03;71.05;100220.81;4414285;32;34313;-73
2022/05/06 00:54:16;;;;;;;9.50;6.65;;;;;;;15.00;71.55;100215.94;4401954;32;34671;-73
2022/05/06 00:57:02;;;;;;;10.88;6.85;;;;;;;14.99;71.49;100215.09;4410838;32;36046;-73
2022/05/06 01:02:56;;;;;;;10.85;6.80;;;;;;;14.98;71.97;100226.50;4410839;32;34262;-73
2022/05/06 01:05:42;;;;;;;8.80;6.43;;;;;;;13.77;76.70;100224.31;4412816;32;34735;-72
2022/05/06 01:08:29;;;;;;;10.38;6.55;;;;;;;14.48;73.35;100227.75;4416297;32;35011;-73
2022/05/06 01:11:17;;;;;;;10.45;6.53;;;;;;;14.78;72.06;100233.47;4407957;32;34620;-73
2022/05/06 01:14:03;;;;;;;9.23;6.78;;;;;;;14.39;74.75;100227.72;4409591;32;34175;-72
2022/05/06 01:16:50;;;;;;;11.43;6.95;;;;;;;14.34;76.62;100235.34;4400231;32;35659;-73
2022/05/06 01:19:36;;;;;;;9.25;6.65;;;;;;;14.86;73.47;100235.44;4415309;32;34944;-73
2022/05/06 01:22:23;;;;;;;9.32;6.75;;;;;;;15.13;72.44;100227.94;4414917;32;34769;-73
2022/05/06 01:25:11;;;;;;;10.93;6.95;;;;;;;14.72;73.94;100219.03;4411738;32;33251;-72
2022/05/06 01:28:03;;;;;;;9.20;6.93;;;;;;;15.01;73.28;100223.06;4413456;32;35596;-73
2022/05/06 01:30:54;;;;;;;9.85;7.28;;;;;;;14.37;75.47;100220.91;4409575;32;35846;-73
2022/05/06 01:33:42;;;;;;;11.95;6.97;;;;;;;13.92;77.74;100221.97;4408986;32;35522;-73
2022/05/06 01:36:29;;;;;;;9.15;7.05;;;;;;;14.48;75.96;100226.94;4410243;32;35075;-73
2022/05/06 01:39:18;;;;;;;11.12;7.75;;;;;;;14.88;74.15;100224.06;4410085;32;35602;-73
2022/05/06 01:42:09;;;;;;;9.43;7.15;;;;;;;14.91;73.38;100221.44;4388559;32;34753;-73
2022/05/06 01:44:58;;;;;;;9.27;7.18;;;;;;;13.85;78.02;100218.84;4423066;32;35815;-72
2022/05/06 01:47:45;;;;;;;9.52;7.45;;;;;;;14.27;79.30;100222.03;4405786;32;34284;-73
2022/05/06 01:50:36;;;;;;;11.18;6.87;;;;;;;14.56;76.37;100212.38;4404804;32;34776;-73
2022/05/06 01:53:22;;;;;;;9.73;7.20;;;;;;;14.98;73.97;100219.03;4405870;32;34982;-72
2022/05/06 01:56:09;;;;;;;10.90;7.22;;;;;;;14.91;73.24;100218.69;4423088;32;35622;-73
2022/05/06 01:58:57;;;;;;;11.45;7.57;;;;;;;14.76;73.37;100217.25;4411591;32;34294;-72
2022/05/06 02:01:45;;;;;;;10.23;7.50;;;;;;;14.91;71.91;100212.38;4410524;32;34727;-73
2022/05/06 02:07:41;;;;;;;12.18;7.15;;;;;;;15.09;70.58;100208.47;4421851;32;35423;-73
2022/05/06 02:10:28;;;;;;;11.73;7.05;;;;;;;15.00;70.04;100202.16;4423109;32;35158;-73
2022/05/06 02:13:15;;;;;;;13.70;7.45;;;;;;;14.97;70.17;100205.53;4415502;32;34599;-72
2022/05/06 02:16:02;;;;;;;10.75;7.07;;;;;;;15.00;69.31;100207.66;4405362;32;34894;-72
2022/05/06 02:18:51;;;;;;;9.30;7.25;;;;;;;15.00;68.48;100207.66;4421810;32;34575;-73
2022/05/06 02:21:40;;;;;;;9.38;6.97;;;;;;;15.05;69.06;100215.75;4421509;32;33993;-73
2022/05/06 02:24:28;;;;;;;9.95;6.45;;;;;;;15.21;68.08;100216.87;4422456;32;35774;-72
2022/05/06 02:27:17;;;;;;;9.77;6.87;;;;;;;15.18;67.88;100205.69;4421658;32;35887;-73
2022/05/06 02:33:12;;;;;;;8.82;6.87;;;;;;;15.41;66.76;100211.78;4422373;32;34202;-73
2022/05/06 02:35:59;;;;;;;12.50;6.55;;;;;;;15.39;66.58;100216.81;4422930;32;34596;-73
2022/05/06 02:38:48;;;;;;;8.85;6.40;;;;;;;15.56;65.64;100205.72;4411783;32;35924;-72
2022/05/06 02:41:35;;;;;;;9.98;6.47;;;;;;;15.43;65.65;100207.56;4422013;32;35769;-73
2022/05/06 02:44:22;;;;;;;9.85;7.28;;;;;;;15.58;65.51;100213.69;4417067;32;34424;-73
2022/05/06 02:47:11;;;;;;;9.10;6.82;;;;;;;15.54;65.23;100213.56;4411176;32;34730;-72
2022/05/06 02:49:57;;;;;;;12.02;6.50;;;;;;;15.67;64.89;100215.28;4422710;32;35287;-72
2022/05/06 02:52:45;;;;;;;8.00;5.90;;;;;;;15.43;66.36;100217.81;4422403;32;34760;-73
2022/05/06 02:55:32;;;;;;;8.73;6.32;;;;;;;15.78;64.60;100203.88;4410477;32;33154;-72
2022/05/06 02:58:20;;;;;;;9.63;6.37;;;;;;;15.58;65.25;100205.41;4422744;32;34682;-72
2022/05/06 03:01:07;;;;;;;7.90;6.05;;;;;;;15.66;64.69;100202.59;4422868;32;35935;-73
2022/05/06 03:03:54;;;;;;;10.85;6.40;;;;;;;15.58;64.91;100203.44;4422718;32;34280;-72
2022/05/06 03:06:44;;;;;;;9.20;6.25;;;;;;;15.58;64.80;100202.66;4422488;32;34249;-73
2022/05/06 03:09:32;;;;;;;9.77;6.32;;;;;;;15.75;64.43;100202.59;4420432;32;35516;-72
2022/05/06 03:12:20;;;;;;;8.27;5.75;;;;;;;15.65;64.26;100187.19;4418482;32;35021;-73
2022/05/06 03:15:08;;;;;;;8.82;6.37;;;;;;;15.72;63.99;100190.25;4420831;32;35533;-73
2022/05/06 03:17:57;;;;;;;11.10;6.00;;;;;;;15.59;64.47;100195.97;4422445;32;35031;-73
2022/05/06 03:20:50;;;;;;;8.55;5.93;;;;;;;15.56;64.57;100205.72;4418362;32;34658;-72
2022/05/06 03:23:37;;;;;;;9.05;5.75;;;;;;;15.70;64.13;100200.81;4422471;32;35937;-72
2022/05/06 03:26:24;;;;;;;10.30;6.35;;;;;;;15.81;63.19;100208.75;4422854;32;35510;-72
2022/05/06 03:29:12;;;;;;;8.05;5.25;;;;;;;15.81;63.06;100211.50;4422343;32;34185;-72
2022/05/06 03:31:59;;;;;;;10.32;5.20;;;;;;;15.71;62.92;100204.41;4422766;32;34592;-73
2022/05/06 03:34:49;;;;;;;11.18;5.32;;;;;;;15.84;63.09;100200.59;4422842;32;35940;-72
2022/05/06 03:37:38;;;;;;;8.18;4.85;;;;;;;15.81;63.00;100209.56;4422716;32;35772;-73
2022/05/06 03:40:26;;;;;;;9.30;5.50;;;;;;;15.99;62.51;100218.56;4421185;32;34292;-73
2022/05/06 03:43:13;;;;;;;8.45;5.40;;;;;;;16.07;62.60;100209.41;4422366;32;34674;-73
2022/05/06 03:46:00;;;;;;;7.85;5.70;;;;;;;16.03;62.48;100202.94;4422801;32;34962;-73
2022/05/06 03:48:47;;;;;;;8.85;5.72;;;;;;;15.72;63.48;100214.31;4422593;32;34730;-73
2022/05/06 03:51:34;;;;;;;9.38;5.65;;;;;;;15.67;63.38;100201.47;4419868;32;34232;-72
2022/05/06 03:54:25;;;;;;;9.20;5.43;;;;;;;15.69;63.62;100210.25;4405859;32;34666;-73
2022/05/06 03:57:11;;;;;;;9.02;5.75;;;;;;;15.81;63.43;100206.78;4410502;32;35049;-73
2022/05/06 03:59:58;;;;;;;10.82;5.87;;;;;;;15.92;63.10;100218.28;4421988;32;34439;-73
2022/05/06 04:02:49;;;;;;;9.43;5.72;;;;;;;15.94;63.10;100227.88;4422354;32;34583;-73
2022/05/06 04:05:38;;;;;;;10.07;6.50;;;;;;;15.85;63.25;100217.97;4420496;32;34625;-73
2022/05/06 04:08:25;;;;;;;8.55;5.68;;;;;;;15.82;63.47;100218.66;4422526;32;35218;-74
2022/05/06 04:11:13;;;;;;;10.25;5.70;;;;;;;15.85;63.22;100220.75;4420535;32;35851;-72
2022/05/06 04:14:01;;;;;;;8.43;5.78;;;;;;;15.63;64.28;100217.09;4421852;32;34276;-73
2022/05/06 04:16:50;;;;;;;9.38;6.15;;;;;;;15.72;64.18;100219.84;4422158;32;34819;-72
2022/05/06 04:23:29;;;;;;;8.57;6.00;;;;;;;15.78;63.76;100228.75;4421954;32;34966;-73
2022/05/06 04:25:57;;;;;;;8.98;5.65;;;;;;;15.82;63.97;100241.56;4420722;32;34189;-72
2022/05/06 04:28:45;;;;;;;9.93;5.60;;;;;;;15.78;64.20;100248.09;4412759;32;35566;-72
2022/05/06 04:31:34;;;;;;;9.13;5.93;;;;;;;16.22;62.81;100248.69;4411252;32;34908;-73
2022/05/06 04:34:22;;;;;;;10.40;5.82;;;;;;;15.93;63.78;100253.06;4419682;32;34863;-72
2022/05/06 04:37:10;;;;;;;10.85;5.80;;;;;;;15.95;64.33;100250.78;4409472;32;35423;-73
2022/05/06 04:39:58;;;;;;;10.23;6.00;;;;;;;16.22;63.51;100251.44;4421801;32;36116;-72
2022/05/06 04:42:47;;;;;;;9.50;5.85;;;;;;;16.17;63.75;100252.47;4410368;32;35027;-72
2022/05/06 04:45:43;;;;;;;10.20;6.37;;;;;;;15.94;64.35;100254.69;4418902;32;35493;-72
2022/05/06 04:48:31;;;;;;;10.90;6.25;;;;;;;16.18;63.77;100259.59;4421541;32;35048;-72
2022/05/06 04:51:19;;;;;;;8.65;5.90;;;;;;;16.37;63.11;100261.97;4420826;32;34740;-72
2022/05/06 04:54:10;;;;;;;8.27;6.25;;;;;;;16.11;64.33;100268.44;4420386;32;35043;-72
2022/05/06 04:56:58;;;;;;;11.02;6.22;;;;;;;16.43;62.79;100266.12;4422912;32;34605;-72
2022/05/06 04:59:50;;;;;;;8.02;5.87;;;;;;;16.08;64.35;100271.88;4421786;32;35011;-74
2022/05/06 05:02:38;;;;;;;9.20;5.93;;;;;;;16.22;63.91;100276.34;4422050;32;34443;-72
2022/05/06 05:05:27;;;;;;;9.57;6.30;;;;;;;16.53;63.01;100276.78;4420915;32;34974;-73
2022/05/06 05:08:14;;;;;;;8.90;6.03;;;;;;;16.47;63.03;100278.16;4410792;32;34609;-72
2022/05/06 05:11:04;;;;;;;13.15;6.57;;;;;;;16.46;63.11;100279.31;4422397;32;34299;-72
2022/05/06 05:13:51;;;;;;;9.82;6.57;;;;;;;16.57;62.57;100271.44;4421511;32;34598;-73
2022/05/06 05:16:45;;;;;;;11.43;6.47;;;;;;;16.20;63.68;100273.91;4420292;32;34642;-74
2022/05/06 05:19:40;;;;;;;9.48;6.85;;;;;;;16.32;63.31;100262.94;4416616;32;34589;-72
2022/05/06 05:22:31;;;;;;;9.45;6.22;;;;;;;16.38;63.29;100272.66;4409627;32;35093;-72
2022/05/06 05:25:19;;;;;;;12.65;6.75;;;;;;;16.37;63.32;100270.25;4422516;32;34783;-73
2022/05/06 05:28:08;;;;;;;8.77;6.03;;;;;;;16.29;63.61;100276.62;4418908;32;34950;-73
2022/05/06 05:30:55;;;;;;;11.70;6.10;;;;;;;16.27;63.56;100279.72;4419702;32;34946;-73
2022/05/06 05:33:52;;;;;;;10.13;6.28;;;;;;;16.46;63.14;100282.06;4421110;32;35292;-72
2022/05/06 05:36:49;;;;;;;11.73;6.05;;;;;;;16.62;63.08;100277.56;4422200;32;34729;-73
2022/05/06 05:39:36;;;;;;;9.95;6.22;;;;;;;16.29;63.74;100276.62;4400358;32;34887;-73
2022/05/06 05:42:27;;;;;;;10.50;6.30;;;;;;;16.42;63.79;100270.03;4415408;32;34697;-73
2022/05/06 05:48:21;;;;;;;11.38;6.37;;;;;;;16.93;61.63;100279.16;4414052;32;34717;-72
2022/05/06 05:51:11;;;;;;;11.75;6.12;;;;;;;16.98;61.55;100280.91;4421372;32;35880;-73
2022/05/06 05:53:59;;;;;;;9.68;6.28;;;;;;;16.67;62.70;100284.03;4421914;32;34621;-72
2022/05/06 05:56:47;;;;;;;8.93;6.10;;;;;;;16.60;62.93;100293.69;4410269;32;34286;-72
2022/05/06 05:59:35;;;;;;;11.02;6.47;;;;;;;17.04;60.95;100294.19;4421891;32;34750;-73
2022/05/06 06:02:26;;;;;;;8.00;5.93;;;;;;;17.00;61.42;100295.22;4421428;32;35074;-73
2022/05/06 06:05:20;;;;;;;9.50;6.35;;;;;;;17.27;60.48;100294.66;4405350;32;35539;-73
2022/05/06 06:08:07;;;;;;;7.43;5.62;;;;;;;17.29;60.25;100292.34;4410017;32;34153;-72
2022/05/06 06:10:55;;;;;;;13.10;6.45;;;;;;;17.13;60.22;100302.44;4410636;32;34632;-73
2022/05/06 06:13:43;;;;;;;14.80;6.35;;;;;;;17.27;60.28;100300.19;4419686;32;35078;-72
2022/05/06 06:16:31;;;;;;;11.65;6.82;;;;;;;17.21;60.42;100306.28;4421579;32;35634;-72
2022/05/06 06:19:21;;;;;;;10.45;6.70;;;;;;;17.06;61.25;100302.19;4418422;32;34216;-73
2022/05/06 06:22:11;;;;;;;10.23;6.53;;;;;;;16.97;61.43;100299.47;4413531;32;35418;-74
2022/05/06 06:25:01;;;;;;;10.48;6.20;;;;;;;16.98;60.91;100303.84;4416933;32;35010;-74
2022/05/06 06:27:49;;;;;;;9.82;6.85;;;;;;;16.75;62.13;100310.84;4421427;32;34930;-74
2022/05/06 06:30:37;;;;;;;9.65;6.93;;;;;;;16.79;61.37;100307.12;4423343;32;35252;-73
2022/05/06 06:33:25;;;;;;;11.25;6.55;;;;;;;16.66;61.72;100308.13;4423583;32;34714;-73
2022/05/06 06:36:13;;;;;;;9.65;6.40;;;;;;;16.55;63.41;100304.94;4412498;32;34966;-73
2022/05/06 06:39:04;;;;;;;9.27;6.55;;;;;;;17.04;61.70;100310.81;4424094;32;35447;-73
2022/05/06 06:41:54;;;;;;;8.48;6.22;;;;;;;17.00;61.12;100315.41;4422108;32;34239;-73
2022/05/06 06:44:45;;;;;;;13.40;7.15;;;;;;;16.99;61.33;100310.19;4424103;32;34636;-73
2022/05/06 06:47:37;;;;;;;13.77;7.30;;;;;;;17.00;61.61;100307.09;4423774;32;35005;-74
2022/05/06 06:50:25;;;;;;;;;;;;;;;17.42;60.61;100306.28;4423767;32;34622;-74
2022/05/06 06:53:12;;;;;;;9.45;7.12;;;;;;;17.52;59.78;100301.09;4421821;32;34936;-73
2022/05/06 06:55:59;;;;;;;10.55;7.00;;;;;;;17.35;60.21;100314.31;4424305;32;35683;-73
2022/05/06 06:58:49;;;;;;;14.40;7.82;;;;;;;17.22;61.19;100307.91;4418924;32;36000;-73
2022/05/06 07:01:37;;;;;;;15.85;8.27;;;;;;;17.46;60.33;100296.91;4422358;32;34736;-73
2022/05/06 07:04:25;;;;;;;14.32;7.10;;;;;;;17.50;60.10;100292.34;4424017;32;34180;-73
2022/05/06 07:13:50;;;;;;;11.45;7.62;;;;;;;18.03;58.70;100300.88;4423319;32;34716;-73
2022/05/06 07:16:40;;;;;;;10.95;7.07;;;;;;;18.27;58.50;100297.34;4421464;32;35135;-73
2022/05/06 07:19:28;;;;;;;12.75;7.95;;;;;;;18.20;58.54;100299.84;4423839;32;34679;-74
2022/05/06 07:22:16;;;;;;;13.80;7.28;;;;;;;18.02;58.63;100302.03;4419467;32;35147;-73
2022/05/06 07:25:13;;;;;;;12.27;7.30;;;;;;;18.30;57.88;100302.19;4409636;32;35612;-74
2022/05/06 07:28:03;;;;;;;12.65;7.05;;;;;;;17.84;59.22;100304.19;4422945;32;35370;-74
2022/05/06 07:30:53;;;;;;;14.48;7.72;;;;;;;18.17;58.54;100297.78;4415622;32;35579;-73
2022/05/06 07:33:40;;;;;;;12.88;7.60;;;;;;;18.05;58.79;100306.91;4415858;32;34959;-74
2022/05/06 07:36:32;;;;;;;12.55;8.40;;;;;;;18.40;58.23;100310.03;4415470;32;34657;-74
2022/05/06 07:39:19;;;;;;;10.40;7.12;;;;;;;18.30;58.47;100307.72;4404104;32;35154;-74
2022/05/06 07:42:10;;;;;;;12.95;7.80;;;;;;;18.68;57.28;100311.28;4407265;32;35604;-73
2022/05/06 07:45:00;;;;;;;9.93;7.10;;;;;;;18.63;56.26;100307.56;4419897;32;34927;-73
2022/05/06 07:47:50;;;;;;;12.07;7.60;;;;;;;18.47;56.09;100305.84;4415907;32;34591;-74
2022/05/06 07:50:44;;;;;;;11.63;7.68;;;;;;;18.38;57.34;100314.28;4414155;32;35054;-73
2022/05/06 07:53:32;;;;;;;12.65;7.70;;;;;;;18.78;56.60;100310.81;4413348;32;35652;-74
2022/05/06 07:56:19;;;;;;;11.70;7.22;;;;;;;18.65;56.21;100307.25;4398356;32;35951;-73
2022/05/06 07:59:06;;;;;;;11.20;6.75;;;;;;;18.75;55.82;100317.88;4411678;32;35527;-76
2022/05/06 08:05:05;;;;;;;11.02;6.87;;;;;;;18.86;54.95;100309.88;4414442;32;35633;-74
2022/05/06 08:07:52;;;;;;;12.60;7.07;;;;;;;18.69;56.17;100307.34;4417923;32;35910;-74
2022/05/06 08:10:40;;;;;;;12.43;7.57;;;;;;;18.85;57.22;100311.84;4406951;32;34608;-73
2022/05/06 08:13:28;;;;;;;9.18;7.03;;;;;;;19.13;55.43;100315.84;4405738;32;35070;-74
2022/05/06 08:16:14;;;;;;;11.30;6.75;;;;;;;19.09;55.53;100310.16;4415243;32;34654;-74
2022/05/06 08:19:01;;;;;;;15.43;7.43;;;;;;;19.28;54.95;100323.41;4414362;32;34912;-74
2022/05/06 08:21:49;;;;;;;12.85;7.32;;;;;;;19.52;55.46;100305.81;4420128;32;34890;-74
2022/05/06 08:24:36;;;;;;;13.75;7.35;;;;;;;19.40;54.72;100306.69;4416684;32;34348;-74
2022/05/06 08:27:23;;;;;;;15.15;7.45;;;;;;;19.40;55.63;100309.47;4411162;32;35592;-74
2022/05/06 08:30:12;;;;;;;10.77;7.43;;;;;;;19.82;53.64;100308.25;4410844;32;35249;-74
2022/05/06 08:32:59;;;;;;;15.30;7.60;;;;;;;19.81;54.11;100306.62;4410426;32;34330;-73
2022/05/06 08:35:46;;;;;;;13.35;8.20;;;;;;;19.77;54.13;100304.56;4415977;32;34355;-74
2022/05/06 08:38:38;;;;;;;12.57;7.75;;;;;;;19.61;54.50;100317.59;4421437;32;35051;-74
2022/05/06 08:41:28;;;;;;;12.20;7.05;;;;;;;19.59;54.05;100306.03;4413686;32;35937;-74
2022/05/06 08:53:51;;;;;;;10.15;6.62;;;;;;;19.94;53.51;100310.94;4358134;32;34966;-74
2022/05/06 08:56:39;;;;;;;11.82;6.43;;;;;;;20.23;52.23;100306.91;4419952;32;34525;-74
2022/05/06 08:59:26;;;;;;;11.63;7.25;;;;;;;20.39;52.91;100312.47;4419287;32;35124;-74
2022/05/06 09:02:13;;;;;;;9.75;6.68;;;;;;;20.79;51.69;100317.00;4415889;32;35555;-75
2022/05/06 09:05:00;;;;;;;11.75;7.00;;;;;;;20.55;52.29;100316.06;4422096;32;35583;-74
2022/05/06 09:07:56;;;;;;;11.10;6.82;;;;;;;21.00;51.28;100311.06;4410777;32;35605;-74
2022/05/06 09:11:04;;;;;;;11.20;6.25;;;;;;;21.16;50.80;100311.03;4422117;32;34246;-75
2022/05/06 09:13:58;;;;;;;10.82;6.70;;;;;;;21.38;48.73;100310.31;4409232;32;34646;-75
2022/05/06 09:16:46;;;;;;;14.45;7.18;;;;;;;21.51;50.03;100316.53;4401485;32;34927;-74
2022/05/06 09:19:34;;;;;;;12.00;6.55;;;;;;;21.58;48.25;100307.53;4419395;32;34798;-74
2022/05/06 09:22:28;;;;;;;10.63;6.70;;;;;;;21.70;49.23;100307.34;4410422;32;32742;-75
2022/05/06 09:25:42;;;;;;;14.85;6.60;;;;;;;21.52;49.50;100310.59;4419959;32;34728;-75
2022/05/06 09:28:32;;;;;;;14.10;6.47;;;;;;;21.99;47.73;100312.25;4421039;32;35013;-76
2022/05/06 09:31:25;;;;;;;12.80;6.30;;;;;;;22.07;48.53;100315.16;4421698;32;35467;-75
2022/05/06 09:34:12;;;;;;;11.05;6.28;;;;;;;21.96;48.98;100315.78;4421019;32;34127;-75
2022/05/06 09:36:59;;;;;;;10.27;5.85;;;;;;;22.08;46.70;100313.97;4420773;32;34246;-75
2022/05/06 09:40:02;;;;;;;11.10;6.28;;;;;;;21.90;47.44;100313.69;4420995;32;35171;-75
2022/05/06 09:42:53;;;;;;;11.52;6.53;;;;;;;22.31;45.87;100303.62;4407333;32;34714;-75
2022/05/06 10:00:14;;;;;;;12.10;5.60;;;;;;;22.62;46.54;100308.09;4831474;28;20105;-76
2022/05/06 10:03:02;;;;;;;13.88;6.32;;;;;;;23.26;44.38;100299.00;4263423;33;34612;-78
2022/05/06 10:05:48;;;;;;;12.52;5.87;;;;;;;23.08;44.79;100298.78;4268531;33;35742;-79
2022/05/06 10:08:36;;;;;;;10.60;5.32;;;;;;;23.19;44.29;100299.72;4267511;33;34274;-79
2022/05/06 10:11:25;;;;;;;9.45;4.50;;;;;;;22.90;43.44;100293.72;4268192;33;34035;-79
2022/05/06 10:14:13;;;;;;;8.90;4.32;;;;;;;23.15;47.06;100295.28;4257674;33;33307;-79
2022/05/06 10:17:00;;;;;;;11.18;5.10;;;;;;;23.62;43.48;100294.59;4260990;33;34395;-79
2022/05/06 10:19:57;;;;;;;6.87;3.92;;;;;;;23.99;42.58;100294.63;4266852;33;34685;-73
2022/05/06 10:23:00;;;;;;;9.98;3.83;;;;;;;23.94;41.07;100288.56;4268552;33;35308;-73
2022/05/06 10:25:48;;;;;;;5.05;3.45;;;;;;;24.21;38.83;100281.59;4278484;33;35654;-73
2022/05/06 10:35:02;;;;;;;5.50;3.87;;;;;;;24.02;39.91;100284.63;4301764;33;34080;-73
2022/05/06 10:37:49;;;;;;;7.47;4.32;;;;;;;24.59;38.49;100287.06;4302142;33;34300;-72
2022/05/06 10:40:35;;;;;;;5.90;3.55;;;;;;;24.62;37.23;100281.53;4289500;33;35954;-72
2022/05/06 10:43:40;;;;;;;5.62;4.05;;;;;;;25.11;37.26;100271.75;4301054;33;33049;-72
2022/05/06 10:46:33;;;;;;;7.00;4.87;;;;;;;25.16;37.75;100272.59;4301549;33;35150;-72
2022/05/06 10:49:35;;;;;;;7.03;4.15;;;;;;;24.71;37.29;100277.56;4290588;33;35703;-72
2022/05/06 10:52:28;;;;;;;6.18;4.00;;;;;;;24.44;37.71;100272.19;4301149;33;35013;-72
2022/05/06 10:55:17;;;;;;;7.78;4.82;;;;;;;24.51;38.70;100265.84;4301738;33;35482;-72
2022/05/06 10:58:05;;;;;;;6.85;4.95;;;;;;;24.56;38.49;100269.06;4299607;33;34214;-72
2022/05/06 11:00:58;;;;;;;7.30;4.35;;;;;;;24.40;37.99;100272.13;4290232;33;35534;-72
2022/05/06 11:03:54;;;;;;;6.80;4.18;;;;;;;24.84;39.62;100270.41;4299408;33;34850;-72
2022/05/06 11:06:40;;;;;;;5.72;4.10;;;;;;;24.36;39.56;100264.88;4300394;33;34649;-73
2022/05/06 11:09:30;;;;;;;7.05;4.78;;;;;;;24.59;37.94;100268.28;4300049;33;35454;-73
2022/05/06 11:12:42;;;;;;;8.68;4.70;;;;;;;25.02;38.15;100248.88;4300641;33;33921;-72
2022/05/06 11:15:30;;;;;;;5.62;4.43;;;;;;;25.06;38.38;100255.28;4290275;33;34567;-72
2022/05/06 11:18:19;;;;;;;8.30;4.30;;;;;;;25.26;38.37;100249.38;4301511;33;34936;-72
2022/05/06 11:21:21;;;;;;;6.15;4.45;;;;;;;25.17;38.94;100257.37;4298506;33;34404;-72
2022/05/06 11:24:17;;;;;;;8.70;4.72;;;;;;;25.35;37.57;100250.59;4299658;33;34645;-74
2022/05/06 11:27:17;;;;;;;6.37;4.60;;;;;;;25.17;36.91;100246.16;4300823;33;36725;-72
2022/05/06 11:30:04;;;;;;;9.07;4.65;;;;;;;25.29;37.87;100254.19;4300044;33;35166;-72
2022/05/06 11:32:58;;;;;;;8.65;5.47;;;;;;;25.30;37.74;100250.19;4288251;33;36398;-72
2022/05/06 11:35:46;;;;;;;9.43;4.78;;;;;;;24.86;36.99;100242.81;4298568;33;34723;-73
2022/05/06 11:38:40;;;;;;;8.20;5.00;;;;;;;25.20;37.67;100239.75;4300500;33;35954;-72
2022/05/06 11:41:27;;;;;;;6.35;3.78;;;;;;;25.02;37.55;100246.09;4299379;33;34394;-72
2022/05/06 11:47:27;;;;;;;5.87;3.30;;;;;;;25.02;36.39;100234.88;4299451;33;35708;-72
2022/05/06 11:47:29;;;;;;;5.05;4.05;;;;;;;25.14;36.49;100236.53;4300010;33;34716;-73
2022/05/06 11:50:15;;;;;;;6.65;4.15;;;;;;;24.29;38.18;100239.66;4299289;33;34956;-73
2022/05/06 11:53:05;;;;;;;19.17;4.90;;;;;;;24.50;37.59;100242.59;4301113;33;34621;-73
2022/05/06 11:55:51;;;;;;;6.30;4.12;;;;;;;25.19;36.61;100229.72;4298804;33;34246;-72
2022/05/06 11:58:38;;;;;;;11.23;3.80;;;;;;;24.73;37.53;100245.13;4300221;33;34713;-72
2022/05/06 12:01:29;;;;;;;5.65;3.15;;;;;;;24.63;35.96;100234.69;4299578;33;35002;-72
2022/05/06 12:04:16;;;;;;;4.97;3.17;;;;;;;25.15;36.15;100226.91;4295691;33;35503;-72
2022/05/06 12:07:02;;;;;;;5.03;3.28;;;;;;;25.29;34.28;100226.16;4288672;33;34831;-73
2022/05/06 12:09:49;;;;;;;5.22;3.80;;;;;;;25.72;35.01;100226.22;4299884;33;34708;-72
2022/05/06 12:13:00;;;;;;;6.80;3.28;;;;;;;25.51;33.54;100235.44;4298815;33;34953;-73
2022/05/06 12:15:47;;;;;;;9.03;3.67;;;;;;;25.61;33.24;100226.22;4296699;33;35455;-73
2022/05/06 12:18:33;;;;;;;5.40;3.12;;;;;;;25.49;32.14;100230.19;4300531;33;33944;-72
2022/05/06 12:21:22;;;;;;;5.90;3.85;;;;;;;25.38;33.38;100223.78;4284848;33;160140;-73
2022/05/06 12:24:09;;;;;;;4.85;3.30;;;;;;;25.21;33.26;100224.53;4301374;33;34971;-72
2022/05/06 12:26:55;;;;;;;5.07;3.55;;;;;;;25.18;33.55;100222.53;4298105;33;34377;-72
2022/05/06 12:29:42;;;;;;;5.18;3.90;;;;;;;25.04;33.92;100220.44;4300194;33;34840;-73
2022/05/06 12:32:28;;;;;;;6.35;3.87;;;;;;;25.30;33.68;100222.97;4298763;33;35430;-72
2022/05/06 12:35:15;;;;;;;7.10;3.92;;;;;;;25.25;33.12;100214.94;4299470;33;36008;-72
2022/05/06 12:38:01;;;;;;;5.82;3.40;;;;;;;25.15;34.40;100204.50;4299188;33;35124;-72
2022/05/06 12:40:49;;;;;;;5.60;3.55;;;;;;;25.74;34.44;100216.22;4300700;33;34152;-72
2022/05/06 12:43:35;;;;;;;5.80;3.70;;;;;;;25.96;32.19;100211.44;4290298;33;34644;-73
2022/05/06 12:46:30;;;;;;;9.18;3.97;;;;;;;25.76;33.14;100210.22;4300467;33;34965;-72
2022/05/06 12:52:22;;;;;;;8.35;3.87;;;;;;;25.50;32.52;100203.78;4290923;33;35030;-72
2022/05/06 12:55:08;;;;;;;7.03;3.75;;;;;;;25.22;33.27;100203.72;4300570;33;35318;-72
2022/05/06 12:57:54;;;;;;;5.80;3.65;;;;;;;25.10;33.37;100202.84;4301271;33;35715;-73
2022/05/06 13:00:40;;;;;;;5.37;3.80;;;;;;;25.32;33.80;100197.31;4301987;33;34550;-72
2022/05/06 13:03:29;;;;;;;6.80;3.80;;;;;;;25.32;33.80;100200.91;4300387;33;34975;-73
2022/05/06 13:06:16;;;;;;;7.80;3.67;;;;;;;25.43;35.58;100194.53;4301919;33;34645;-72
2022/05/06 13:09:02;;;;;;;7.05;3.60;;;;;;;25.27;34.57;100186.47;4298840;33;34969;-73
2022/05/06 13:11:49;;;;;;;7.10;3.95;;;;;;;25.49;34.19;100187.31;4299089;33;34827;-72
2022/05/06 13:14:35;;;;;;;6.97;3.90;;;;;;;25.38;35.62;100190.09;4298876;33;34428;-72
2022/05/06 13:17:21;;;;;;;5.20;3.97;;;;;;;25.25;33.77;100195.31;4297384;33;34564;-73
2022/05/06 13:20:08;;;;;;;5.93;3.80;;;;;;;25.50;33.27;100198.16;4299912;33;34078;-73
2022/05/06 13:22:54;;;;;;;4.53;3.47;;;;;;;25.32;33.23;100194.50;4300381;33;34413;-73
2022/05/06 13:25:40;;;;;;;6.25;3.35;;;;;;;25.29;33.00;100193.31;4297834;33;35065;-72
2022/05/06 13:28:27;;;;;;;14.07;4.43;;;;;;;25.04;34.51;100184.78;4297136;33;35035;-72
2022/05/06 13:31:13;;;;;;;9.10;3.75;;;;;;;25.30;34.82;100183.72;4297533;33;35859;-72
2022/05/06 13:34:00;;;;;;;6.28;3.60;;;;;;;25.58;33.92;100187.72;4297133;33;34317;-72
2022/05/06 13:36:47;;;;;;;4.93;3.40;;;;;;;25.18;35.99;100177.66;4300828;33;33839;-73
2022/05/06 13:39:33;;;;;;;4.68;3.37;;;;;;;25.17;34.28;100179.66;4298997;33;34221;-76
2022/05/06 13:42:20;;;;;;;5.30;3.70;;;;;;;25.01;33.13;100176.37;4300081;33;35977;-77
2022/05/06 13:45:06;;;;;;;5.07;3.25;;;;;;;25.06;32.91;100170.41;4300956;33;35126;-75
2022/05/06 13:47:53;;;;;;;5.28;3.60;;;;;;;24.94;33.89;100182.78;4300753;33;34139;-76
2022/05/06 13:50:40;;;;;;;5.22;3.15;;;;;;;25.14;33.22;100174.84;4301003;33;34309;-76
2022/05/06 13:53:26;;;;;;;8.25;4.15;;;;;;;24.89;33.63;100174.75;4291030;33;35025;-77
2022/05/06 13:59:17;;;;;;;7.05;3.42;;;;;;;25.15;34.09;100170.03;4304336;33;35030;-76
2022/05/06 14:02:04;;;;;;;6.57;3.33;;;;;;;24.87;33.41;100175.16;4303019;33;35392;-76
2022/05/06 14:04:51;;;;;;;5.70;3.08;;;;;;;25.13;33.42;100167.59;4304150;33;35946;-76